createdAt,value
2022-09-16T00:00:31.927Z,99713.34
2022-09-16T00:02:58.846Z,99711.59
2022-09-16T00:05:25.446Z,99706.31
2022-09-16T00:07:52.418Z,99714.28
2022-09-16T00:10:18.946Z,99709.00
2022-09-16T00:12:45.647Z,99714.31
2022-09-16T00:15:12.384Z,99712.56
2022-09-16T00:17:39.281Z,99716.13
2022-09-16T00:20:07.315Z,99713.50
2022-09-16T00:22:34.147Z,99710.88
2022-09-16T00:25:00.784Z,99714.44
2022-09-16T00:27:27.768Z,99716.19
2022-09-16T00:29:54.253Z,99710.03
2022-09-16T00:32:20.872Z,99707.41
2022-09-16T00:34:47.374Z,99709.19
2022-09-16T00:37:13.864Z,99718.00
2022-09-16T00:39:40.521Z,99715.38
2022-09-16T00:42:07.360Z,99711.84
2022-09-16T00:44:56.103Z,99717.16
2022-09-16T00:47:40.925Z,99719.72
2022-09-16T00:50:20.530Z,99724.09
2022-09-16T00:52:48.227Z,99718.78
2022-09-16T00:55:19.743Z,99717.88
2022-09-16T00:57:47.837Z,99711.69
2022-09-16T01:00:14.812Z,99720.53
2022-09-16T01:02:44.317Z,99710.84
2022-09-16T01:05:15.482Z,99711.81
2022-09-16T01:07:44.951Z,99714.47
2022-09-16T01:10:14.014Z,99711.88
2022-09-16T01:12:44.419Z,99720.72
2022-09-16T01:15:12.280Z,99718.06
2022-09-16T01:17:50.879Z,99718.94
2022-09-16T01:20:33.458Z,99707.47
2022-09-16T01:23:34.624Z,99717.16
2022-09-16T01:26:16.011Z,99714.47
2022-09-16T01:29:20.381Z,99712.72
2022-09-16T01:31:56.558Z,99719.75
2022-09-16T01:34:35.284Z,99706.50
2022-09-16T01:37:19.840Z,99713.56
2022-09-16T01:39:58.451Z,99707.38
2022-09-16T01:43:00.538Z,99704.69
2022-09-16T01:45:37.967Z,99713.53
2022-09-16T01:48:17.312Z,99716.16
2022-09-16T01:50:46.347Z,99719.69
2022-09-16T01:53:24.708Z,99712.59
2022-09-16T01:56:00.473Z,99717.91
2022-09-16T01:58:37.412Z,99705.50
2022-09-16T02:01:11.927Z,99706.41
2022-09-16T02:03:47.292Z,99704.63
2022-09-16T02:06:19.488Z,99704.63
2022-09-16T02:08:58.843Z,99701.09
2022-09-16T02:11:26.013Z,99705.47
2022-09-16T02:14:28.889Z,99707.22
2022-09-16T02:17:01.262Z,99701.06
2022-09-16T02:19:43.092Z,99692.22
2022-09-16T02:22:16.495Z,99694.00
2022-09-16T02:24:47.122Z,99688.66
2022-09-16T02:27:18.095Z,99687.81
2022-09-16T02:29:50.438Z,99686.91
2022-09-16T02:32:19.117Z,99693.09
2022-09-16T02:34:50.281Z,99692.25
2022-09-16T02:37:39.257Z,99697.59
2022-09-16T02:40:11.009Z,99687.03
2022-09-16T02:42:37.570Z,99685.31
2022-09-16T02:45:05.338Z,99685.31
2022-09-16T02:47:46.970Z,99693.25
2022-09-16T02:50:21.976Z,99678.25
2022-09-16T02:52:48.352Z,99688.88
2022-09-16T02:55:20.917Z,99681.81
2022-09-16T02:57:47.423Z,99679.19
2022-09-16T03:00:14.044Z,99679.22
2022-09-16T03:02:41.113Z,99681.88
2022-09-16T03:05:09.569Z,99683.66
2022-09-16T03:07:38.794Z,99688.97
2022-09-16T03:10:05.754Z,99679.25
2022-09-16T03:12:53.369Z,99681.91
2022-09-16T03:15:38.697Z,99676.66
2022-09-16T03:18:12.664Z,99677.56
2022-09-16T03:21:11.441Z,99674.00
2022-09-16T03:23:54.761Z,99675.81
2022-09-16T03:26:33.064Z,99676.69
2022-09-16T03:29:06.621Z,99681.09
2022-09-16T03:31:48.224Z,99683.78
2022-09-16T03:34:32.673Z,99681.13
2022-09-16T03:37:03.749Z,99678.47
2022-09-16T03:39:32.183Z,99682.03
2022-09-16T03:42:11.479Z,99679.38
2022-09-16T03:44:40.362Z,99679.41
2022-09-16T03:47:08.341Z,99686.47
2022-09-16T03:49:35.649Z,99683.84
2022-09-16T03:52:02.466Z,99675.88
2022-09-16T03:54:28.912Z,99686.47
2022-09-16T03:56:55.382Z,99677.66
2022-09-16T03:59:22.096Z,99678.56
2022-09-16T04:01:49.078Z,99680.28
2022-09-16T04:04:15.571Z,99676.75
2022-09-16T04:06:42.074Z,99671.44
2022-09-16T04:09:12.427Z,99672.34
2022-09-16T04:11:40.319Z,99671.44
2022-09-16T04:14:07.443Z,99667.03
2022-09-16T04:16:34.714Z,99667.91
2022-09-16T04:19:01.232Z,99664.38
2022-09-16T04:21:27.864Z,99665.25
2022-09-16T04:23:54.642Z,99666.13
2022-09-16T04:26:21.417Z,99669.66
2022-09-16T04:28:48.046Z,99663.53
2022-09-16T04:31:15.954Z,99660.00
2022-09-16T04:33:43.119Z,99654.72
2022-09-16T04:36:12.282Z,99652.97
2022-09-16T04:38:40.514Z,99648.56
2022-09-16T04:41:16.704Z,99646.81
2022-09-16T04:43:43.372Z,99656.50
2022-09-16T04:46:10.838Z,99658.25
2022-09-16T04:48:38.393Z,99659.13
2022-09-16T04:51:12.636Z,99664.41
2022-09-16T04:53:40.705Z,99658.22
2022-09-16T04:56:09.896Z,99654.66
2022-09-16T04:58:36.799Z,99661.69
2022-09-16T05:01:08.126Z,99661.66
2022-09-16T05:03:34.733Z,99662.50
2022-09-16T05:06:10.019Z,99658.94
2022-09-16T05:08:37.059Z,99653.63
2022-09-16T05:11:06.430Z,99660.69
2022-09-16T05:13:32.915Z,99654.50
2022-09-16T05:16:10.330Z,99653.59
2022-09-16T05:18:38.579Z,99668.59
2022-09-16T05:21:08.443Z,99653.53
2022-09-16T05:23:35.405Z,99665.00
2022-09-16T05:26:11.016Z,99675.56
2022-09-16T05:28:38.150Z,99670.22
2022-09-16T05:31:31.760Z,99671.06
2022-09-16T05:34:06.639Z,99667.50
2022-09-16T05:36:35.299Z,99673.66
2022-09-16T05:41:52.254Z,99674.47
2022-09-16T05:44:19.075Z,99664.72
2022-09-16T05:46:45.834Z,99670.88
2022-09-16T05:49:12.412Z,99673.50
2022-09-16T05:51:41.398Z,99673.50
2022-09-16T05:54:08.578Z,99673.47
2022-09-16T05:56:35.185Z,99672.53
2022-09-16T05:59:01.941Z,99675.19
2022-09-16T06:01:34.308Z,99667.19
2022-09-16T06:04:03.356Z,99673.31
2022-09-16T06:06:31.009Z,99671.56
2022-09-16T06:09:00.282Z,99659.19
2022-09-16T06:11:28.377Z,99667.13
2022-09-16T06:13:58.094Z,99661.78
2022-09-16T06:16:28.568Z,99660.81
2022-09-16T06:18:57.358Z,99659.81
2022-09-16T06:21:24.064Z,99654.41
2022-09-16T06:23:50.890Z,99661.44
2022-09-16T06:26:19.924Z,99667.59
2022-09-16T06:28:47.769Z,99654.28
2022-09-16T06:31:25.867Z,99660.44
2022-09-16T06:33:53.387Z,99664.91
2022-09-16T06:36:22.777Z,99664.00
2022-09-16T06:38:50.075Z,99656.84
2022-09-16T06:41:18.660Z,99662.19
2022-09-16T06:43:45.431Z,99666.56
2022-09-16T06:46:16.087Z,99659.50
2022-09-16T06:48:45.174Z,99661.28
2022-09-16T06:51:16.709Z,99659.47
2022-09-16T06:53:44.185Z,99663.78
2022-09-16T06:56:13.573Z,99659.31
2022-09-16T06:58:42.566Z,99661.06
2022-09-16T07:01:12.311Z,99660.97
2022-09-16T07:03:43.570Z,99667.94
2022-09-16T07:06:11.632Z,99659.16
2022-09-16T07:08:38.951Z,99659.22
2022-09-16T07:11:14.475Z,99659.25
2022-09-16T07:13:42.003Z,99669.94
2022-09-16T07:16:14.383Z,99662.84
2022-09-16T07:18:42.191Z,99660.06
2022-09-16T07:21:16.942Z,99656.41
2022-09-16T07:23:44.669Z,99666.09
2022-09-16T07:26:11.195Z,99670.59
2022-09-16T07:28:39.143Z,99666.22
2022-09-16T07:31:11.664Z,99660.94
2022-09-16T07:33:44.277Z,99668.00
2022-09-16T07:36:13.469Z,99663.53
2022-09-16T07:38:39.908Z,99662.56
2022-09-16T07:41:12.428Z,99663.28
2022-09-16T07:43:40.318Z,99665.88
2022-09-16T07:46:08.318Z,99693.34
2022-09-16T07:48:35.415Z,99675.72
2022-09-16T07:51:05.949Z,99671.25
2022-09-16T07:53:33.325Z,99679.19
2022-09-16T07:56:14.928Z,99683.63
2022-09-16T07:58:41.762Z,99692.38
2022-09-16T08:01:09.081Z,99683.50
2022-09-16T08:03:37.125Z,99683.44
2022-09-16T08:06:06.831Z,99682.41
2022-09-16T08:08:34.369Z,99681.38
2022-09-16T08:11:02.083Z,99683.06
2022-09-16T08:13:31.265Z,99674.06
2022-09-16T08:16:06.613Z,99692.59
2022-09-16T08:18:33.966Z,99683.63
2022-09-16T08:21:08.106Z,99685.31
2022-09-16T08:23:36.014Z,99686.22
2022-09-16T08:26:02.639Z,99677.28
2022-09-16T08:28:39.943Z,99680.56
2022-09-16T08:31:17.975Z,99674.28
2022-09-16T08:33:45.017Z,99675.97
2022-09-16T08:36:17.689Z,99688.06
2022-09-16T08:38:45.024Z,99672.50
2022-09-16T08:41:28.973Z,99673.03
2022-09-16T08:44:11.711Z,99676.44
2022-09-16T08:46:57.307Z,99675.22
2022-09-16T08:49:43.963Z,99680.59
2022-09-16T08:52:30.121Z,99678.84
2022-09-16T08:55:00.915Z,99685.09
2022-09-16T08:57:30.478Z,99680.50
2022-09-16T09:00:23.534Z,99678.84
2022-09-16T09:02:58.956Z,99676.88
2022-09-16T09:05:45.325Z,99667.84
2022-09-16T09:08:43.939Z,99673.84
2022-09-16T09:11:32.908Z,99686.94
2022-09-16T09:14:23.982Z,99670.72
2022-09-16T09:17:03.398Z,99677.19
2022-09-16T09:20:01.130Z,99672.13
2022-09-16T09:22:58.082Z,99672.44
2022-09-16T09:25:33.817Z,99673.28
2022-09-16T09:28:23.301Z,99658.81
2022-09-16T09:30:54.932Z,99672.78
2022-09-16T09:33:47.187Z,99664.13
2022-09-16T09:36:19.699Z,99665.06
2022-09-16T09:38:49.192Z,99675.75
2022-09-16T09:41:34.205Z,99665.91
2022-09-16T09:44:37.820Z,99667.34
2022-09-16T09:47:11.325Z,99672.19
2022-09-16T09:49:44.043Z,99659.78
2022-09-16T09:52:25.098Z,99664.03
2022-09-16T09:54:52.239Z,99662.06
2022-09-16T09:57:37.776Z,99671.19
2022-09-16T10:00:10.328Z,99654.41
2022-09-16T10:02:44.973Z,99654.75
2022-09-16T10:05:26.889Z,99652.16
2022-09-16T10:07:58.382Z,99647.97
2022-09-16T10:10:27.814Z,99641.44
2022-09-16T10:12:54.597Z,99654.88
2022-09-16T10:15:28.052Z,99658.59
2022-09-16T10:17:55.487Z,99648.91
2022-09-16T10:20:29.429Z,99641.00
2022-09-16T10:23:11.618Z,99644.47
2022-09-16T10:25:38.650Z,99637.53
2022-09-16T10:28:17.894Z,99639.47
2022-09-16T10:30:51.332Z,99635.91
2022-09-16T10:33:25.887Z,99632.84
2022-09-16T10:36:03.160Z,99621.25
2022-09-16T10:38:43.776Z,99620.53
2022-09-16T10:41:34.010Z,99631.81
2022-09-16T10:44:06.490Z,99619.34
2022-09-16T10:46:34.139Z,99633.50
2022-09-16T10:49:09.412Z,99639.56
2022-09-16T10:51:36.197Z,99620.25
2022-09-16T10:54:06.108Z,99627.25
2022-09-16T10:56:46.216Z,99613.25
2022-09-16T10:59:14.116Z,99613.16
2022-09-16T11:01:55.793Z,99614.84
2022-09-16T11:04:37.759Z,99614.81
2022-09-16T11:07:10.245Z,99637.53
2022-09-16T11:10:01.142Z,99621.06
2022-09-16T11:13:08.335Z,99611.66
2022-09-16T11:15:40.706Z,99620.94
2022-09-16T11:18:16.318Z,99606.53
2022-09-16T11:20:52.672Z,99601.22
2022-09-16T11:23:45.081Z,99605.00
2022-09-16T11:26:17.425Z,99600.91
2022-09-16T11:29:11.354Z,99603.84
2022-09-16T11:31:47.300Z,99605.88
2022-09-16T11:34:34.320Z,99615.53
2022-09-16T11:37:19.453Z,99601.66
2022-09-16T11:40:07.791Z,99609.28
2022-09-16T11:42:40.121Z,99595.25
2022-09-16T11:45:17.253Z,99612.19
2022-09-16T11:47:55.841Z,99600.34
2022-09-16T11:50:48.024Z,99599.63
2022-09-16T11:53:34.641Z,99605.78
2022-09-16T11:56:12.055Z,99605.50
2022-09-16T11:58:46.238Z,99594.88
2022-09-16T12:01:31.958Z,99596.97
2022-09-16T12:04:24.780Z,99582.03
2022-09-16T12:07:18.842Z,99578.16
2022-09-16T12:10:01.990Z,99573.84
2022-09-16T12:12:37.264Z,99572.16
2022-09-16T12:15:18.739Z,99569.53
2022-09-16T12:18:11.947Z,99556.72
2022-09-16T12:20:43.683Z,99565.50
2022-09-16T12:23:26.533Z,99583.97
2022-09-16T12:26:14.125Z,99555.06
2022-09-16T12:29:02.144Z,99558.28
2022-09-16T12:31:45.896Z,99555.78
2022-09-16T12:34:22.656Z,99555.97
2022-09-16T12:36:57.973Z,99584.66
2022-09-16T12:39:24.560Z,99568.38
2022-09-16T12:42:09.724Z,99564.00
2022-09-16T12:45:05.716Z,99564.91
2022-09-16T12:47:38.080Z,99553.34
2022-09-16T12:50:23.287Z,99549.63
2022-09-16T12:53:19.886Z,99570.09
2022-09-16T12:56:27.090Z,99588.94
2022-09-16T12:59:13.663Z,99578.31
2022-09-16T13:01:45.157Z,99567.19
2022-09-16T13:04:21.060Z,99564.63
2022-09-16T13:06:55.923Z,99562.59
2022-09-16T13:09:41.567Z,99561.25
2022-09-16T13:15:22.158Z,99552.44
2022-09-16T13:17:52.739Z,99566.09
2022-09-16T13:20:24.693Z,99543.28
2022-09-16T13:23:02.674Z,99541.44
2022-09-16T13:25:59.040Z,99554.09
2022-09-16T13:28:39.243Z,99547.69
2022-09-16T13:31:15.187Z,99545.16
2022-09-16T13:34:01.574Z,99569.34
2022-09-16T13:36:29.540Z,99580.34
2022-09-16T13:38:58.972Z,99578.13
2022-09-16T13:41:34.596Z,99586.19
2022-09-16T13:44:02.177Z,99589.28
2022-09-16T13:46:35.378Z,99606.66
2022-09-16T13:49:11.018Z,99610.56
2022-09-16T13:51:48.092Z,99601.00
2022-09-16T13:54:27.949Z,99586.06
2022-09-16T13:57:12.897Z,99577.19
2022-09-16T14:00:02.498Z,99575.44
2022-09-16T14:02:55.441Z,99567.50
2022-09-16T14:05:52.804Z,99556.81
2022-09-16T14:08:45.530Z,99560.06
2022-09-16T14:11:17.172Z,99566.13
2022-09-16T14:14:04.764Z,99555.19
2022-09-16T14:16:34.312Z,99542.47
2022-09-16T14:19:05.830Z,99557.25
2022-09-16T14:21:32.871Z,99553.47
2022-09-16T14:24:16.248Z,99554.03
2022-09-16T14:26:57.768Z,99550.06
2022-09-16T14:29:25.619Z,99555.94
2022-09-16T14:31:55.461Z,99553.16
2022-09-16T14:34:28.577Z,99546.06
2022-09-16T14:36:55.274Z,99556.75
2022-09-16T14:39:25.379Z,99542.50
2022-09-16T14:41:58.597Z,99533.41
2022-09-16T14:44:34.883Z,99538.47
2022-09-16T14:47:10.522Z,99530.25
2022-09-16T14:49:49.845Z,99531.81
2022-09-16T14:52:22.407Z,99530.78
2022-09-16T14:54:50.925Z,99524.44
2022-09-16T14:57:24.370Z,99520.63
2022-09-16T14:59:54.291Z,99518.72
2022-09-16T15:02:27.185Z,99523.88
2022-09-16T15:04:58.108Z,99517.56
2022-09-16T15:07:36.093Z,99510.38
2022-09-16T15:10:22.494Z,99513.97
2022-09-16T15:12:56.675Z,99506.72
2022-09-16T15:15:29.686Z,99509.41
2022-09-16T15:18:15.528Z,99519.09
2022-09-16T15:20:42.728Z,99507.47
2022-09-16T15:23:22.182Z,99507.56
2022-09-16T15:25:56.223Z,99502.16
2022-09-16T15:28:22.749Z,99495.13
2022-09-16T15:30:53.908Z,99509.44
2022-09-16T15:33:25.416Z,99504.28
2022-09-16T15:35:52.617Z,99503.41
2022-09-16T15:38:23.086Z,99503.41
2022-09-16T15:41:01.530Z,99498.06
2022-09-16T15:43:29.958Z,99507.00
2022-09-16T15:46:09.072Z,99503.41
2022-09-16T15:48:44.340Z,99491.00
2022-09-16T15:51:20.560Z,99495.50
2022-09-16T15:53:49.174Z,99497.25
2022-09-16T15:56:25.275Z,99489.28
2022-09-16T15:58:58.033Z,99490.22
2022-09-16T16:01:30.603Z,99486.78
2022-09-16T16:03:59.418Z,99486.91
2022-09-16T16:06:52.164Z,99491.56
2022-09-16T16:09:27.857Z,99491.66
2022-09-16T16:11:57.768Z,99482.03
2022-09-16T16:14:32.419Z,99483.03
2022-09-16T16:17:13.143Z,99491.22
2022-09-16T16:19:42.138Z,99477.19
2022-09-16T16:22:09.661Z,99482.72
2022-09-16T16:24:37.004Z,99478.47
2022-09-16T16:27:04.674Z,99469.78
2022-09-16T16:29:31.307Z,99469.03
2022-09-16T16:32:01.644Z,99473.63
2022-09-16T16:34:31.093Z,99468.38
2022-09-16T16:36:57.653Z,99468.44
2022-09-16T16:39:24.530Z,99456.97
2022-09-16T16:41:54.148Z,99467.66
2022-09-16T16:44:22.800Z,99461.50
2022-09-16T16:46:51.399Z,99460.69
2022-09-16T16:49:18.496Z,99459.00
2022-09-16T16:51:45.323Z,99459.88
2022-09-16T16:54:13.273Z,99459.91
2022-09-16T16:56:40.236Z,99465.31
2022-09-16T16:59:08.373Z,99460.94
2022-09-16T17:01:35.808Z,99468.03
2022-09-16T17:04:05.307Z,99458.38
2022-09-16T17:06:32.864Z,99456.59
2022-09-16T17:08:59.454Z,99461.06
2022-09-16T17:11:26.599Z,99469.06
2022-09-16T17:13:58.641Z,99465.59
2022-09-16T17:16:25.979Z,99480.66
2022-09-16T17:18:52.889Z,99469.19
2022-09-16T17:21:22.660Z,99471.84
2022-09-16T17:23:49.154Z,99470.97
2022-09-16T17:26:16.177Z,99472.78
2022-09-16T17:28:44.758Z,99474.59
2022-09-16T17:31:14.825Z,99479.09
2022-09-16T17:33:41.769Z,99473.84
2022-09-16T17:36:09.590Z,99473.84
2022-09-16T17:38:36.358Z,99472.06
2022-09-16T17:41:05.625Z,99472.16
2022-09-16T17:43:32.818Z,99475.69
2022-09-16T17:46:06.942Z,99462.44
2022-09-16T17:48:34.310Z,99475.75
2022-09-16T17:51:00.848Z,99481.13
2022-09-16T17:53:27.310Z,99470.53
2022-09-16T17:56:11.323Z,99473.25
2022-09-16T17:58:39.520Z,99474.22
2022-09-16T18:01:12.190Z,99484.03
2022-09-16T18:03:40.891Z,99474.34
2022-09-16T18:06:20.850Z,99472.63
2022-09-16T18:08:48.365Z,99481.50
2022-09-16T18:11:16.735Z,99477.09
2022-09-16T18:13:46.306Z,99467.34
2022-09-16T18:16:15.581Z,99482.41
2022-09-16T18:18:43.816Z,99485.06
2022-09-16T18:21:14.425Z,99482.44
2022-09-16T18:23:42.000Z,99500.13
2022-09-16T18:26:11.265Z,99501.91
2022-09-16T18:29:05.391Z,99506.28
2022-09-16T18:31:25.929Z,99513.38
2022-09-16T18:33:53.878Z,99503.81
2022-09-16T18:36:25.428Z,99502.28
2022-09-16T18:38:53.894Z,99505.16
2022-09-16T18:41:22.877Z,99497.31
2022-09-16T18:43:55.092Z,99493.94
2022-09-16T18:46:26.764Z,99491.38
2022-09-16T18:48:55.300Z,99497.59
2022-09-16T18:51:31.101Z,99497.63
2022-09-16T18:54:00.747Z,99498.53
2022-09-16T18:56:29.537Z,99498.50
2022-09-16T18:59:26.134Z,99513.59
2022-09-16T19:01:54.147Z,99518.06
2022-09-16T19:04:23.608Z,99522.47
2022-09-16T19:06:52.660Z,99501.19
2022-09-16T19:09:21.491Z,99505.66
2022-09-16T19:11:49.369Z,99518.91
2022-09-16T19:14:16.153Z,99508.44
2022-09-16T19:16:44.670Z,99507.59
2022-09-16T19:19:14.412Z,99503.13
2022-09-16T19:21:42.391Z,99509.31
2022-09-16T19:24:14.123Z,99509.28
2022-09-16T19:26:41.831Z,99510.09
2022-09-16T19:29:08.755Z,99510.97
2022-09-16T19:31:37.642Z,99515.41
2022-09-16T19:34:05.871Z,99511.91
2022-09-16T19:36:33.965Z,99525.22
2022-09-16T19:39:01.211Z,99518.19
2022-09-16T19:41:30.568Z,99521.72
2022-09-16T19:43:59.557Z,99513.72
2022-09-16T19:46:27.458Z,99529.66
2022-09-16T19:48:55.326Z,99535.84
2022-09-16T19:51:23.931Z,99519.91
2022-09-16T19:53:52.519Z,99527.00
2022-09-16T19:56:24.952Z,99522.59
2022-09-16T19:58:52.935Z,99530.59
2022-09-16T20:01:25.412Z,99533.25
2022-09-16T20:03:52.941Z,99521.81
2022-09-16T20:06:21.882Z,99530.69
2022-09-16T20:09:01.085Z,99532.53
2022-09-16T20:11:31.469Z,99531.66
2022-09-16T20:14:04.198Z,99534.34
2022-09-16T20:16:37.611Z,99537.00
2022-09-16T20:19:06.497Z,99535.28
2022-09-16T20:21:35.257Z,99539.69
2022-09-16T20:24:05.697Z,99540.59
2022-09-16T20:26:32.870Z,99544.09
2022-09-16T20:29:00.408Z,99548.50
2022-09-16T20:31:33.080Z,99548.50
2022-09-16T20:34:00.383Z,99555.59
2022-09-16T20:36:31.939Z,99547.63
2022-09-16T20:38:59.820Z,99544.09
2022-09-16T20:41:29.358Z,99551.19
2022-09-16T20:43:56.501Z,99548.53
2022-09-16T20:46:25.801Z,99541.44
2022-09-16T20:48:54.533Z,99561.84
2022-09-16T20:51:23.265Z,99556.53
2022-09-16T20:53:55.044Z,99556.53
2022-09-16T20:56:22.311Z,99567.13
2022-09-16T20:58:48.956Z,99557.41
2022-09-16T21:01:18.944Z,99557.38
2022-09-16T21:03:45.839Z,99561.81
2022-09-16T21:06:15.714Z,99559.19
2022-09-16T21:08:43.141Z,99554.75
2022-09-16T21:11:12.511Z,99554.75
2022-09-16T21:13:45.175Z,99566.28
2022-09-16T21:16:14.112Z,99555.66
2022-09-16T21:18:41.943Z,99572.47
2022-09-16T21:21:11.328Z,99568.06
2022-09-16T21:23:38.263Z,99571.56
2022-09-16T21:26:22.827Z,99582.19
2022-09-16T21:28:58.603Z,99580.41
2022-09-16T21:31:28.269Z,99573.38
2022-09-16T21:33:55.422Z,99576.00
2022-09-16T21:36:23.345Z,99588.38
2022-09-16T21:38:50.134Z,99580.41
2022-09-16T21:41:18.909Z,99583.97
2022-09-16T21:43:49.562Z,99582.22
2022-09-16T21:46:22.552Z,99583.09
2022-09-16T21:48:50.274Z,99594.59
2022-09-16T21:51:19.284Z,99592.81
2022-09-16T21:53:47.078Z,99582.19
2022-09-16T21:56:20.610Z,99579.53
2022-09-16T21:58:48.204Z,99590.16
2022-09-16T22:01:18.068Z,99589.28
2022-09-16T22:03:47.479Z,99594.59
2022-09-16T22:06:16.153Z,99582.22
2022-09-16T22:08:48.581Z,99591.94
2022-09-16T22:11:17.404Z,99582.19
2022-09-16T22:13:43.965Z,99598.97
2022-09-16T22:16:17.396Z,99588.41
2022-09-16T22:18:44.746Z,99605.19
2022-09-16T22:21:14.403Z,99599.91
2022-09-16T22:23:41.392Z,99598.16
2022-09-16T22:26:11.439Z,99602.56
2022-09-16T22:28:38.302Z,99607.91
2022-09-16T22:31:10.067Z,99604.41
2022-09-16T22:33:38.088Z,99599.22
2022-09-16T22:36:06.710Z,99603.72
2022-09-16T22:38:33.388Z,99603.72
2022-09-16T22:41:08.436Z,99601.13
2022-09-16T22:43:40.147Z,99610.88
2022-09-16T22:46:09.532Z,99607.34
2022-09-16T22:48:36.718Z,99601.19
2022-09-16T22:51:04.258Z,99598.50
2022-09-16T22:53:31.818Z,99593.22
2022-09-16T22:56:04.760Z,99598.50
2022-09-16T22:58:32.003Z,99592.34
2022-09-16T23:01:09.774Z,99592.41
2022-09-16T23:03:36.650Z,99604.84
2022-09-16T23:06:08.929Z,99595.16
2022-09-16T23:08:37.574Z,99602.25
2022-09-16T23:11:05.927Z,99600.53
2022-09-16T23:13:33.864Z,99596.13
2022-09-16T23:16:02.287Z,99599.69
2022-09-16T23:18:30.555Z,99591.78
2022-09-16T23:21:08.792Z,99587.34
2022-09-16T23:23:40.012Z,99588.25
2022-09-16T23:26:18.954Z,99590.88
2022-09-16T23:28:46.211Z,99585.59
2022-09-16T23:31:15.461Z,99587.34
2022-09-16T23:33:43.008Z,99590.00
2022-09-16T23:36:11.454Z,99590.91
2022-09-16T23:38:39.502Z,99581.16
2022-09-16T23:41:10.748Z,99584.69
2022-09-16T23:43:38.904Z,99588.22
2022-09-16T23:46:05.841Z,99583.81
2022-09-16T23:48:32.821Z,99586.44
2022-09-16T23:50:59.827Z,99584.69
2022-09-16T23:53:28.359Z,99591.72
2022-09-16T23:55:55.548Z,99587.31
2022-09-16T23:58:22.069Z,99590.81
